Time,TemperatureF,DewpointF,PressureIn,WindDirection,WindDirectionDegrees,WindSpeedMPH,WindSpeedGustMPH,Humidity,HourlyPrecipIn,Conditions,Clouds,dailyrainin,SoftwareType,DateUTC
2013-08-03 00:00:00,68.4,65.7,29.75,ESE,123,0.0,14.0,91,0.00,,,0.00,Wunderground v.1.13,2013-08-03 06:00:00,
2013-08-03 00:05:00,68.4,65.7,29.76,ESE,119,0.0,14.0,91,0.00,,,0.00,Wunderground v.1.13,2013-08-03 06:05:00,
2013-08-03 00:10:00,68.4,65.7,29.76,ESE,121,0.0,14.0,91,0.00,,,0.00,Wunderground v.1.13,2013-08-03 06:10:00,
2013-08-03 00:15:00,68.4,66.0,29.76,ESE,123,0.0,14.0,92,0.00,,,0.00,Wunderground v.1.13,2013-08-03 06:15:00,
2013-08-03 00:20:00,68.4,66.0,29.77,SE,134,0.0,14.0,92,0.00,,,0.00,Wunderground v.1.13,2013-08-03 06:20:00,
2013-08-03 00:25:00,68.4,66.0,29.77,SE,135,0.0,14.0,92,0.00,,,0.00,Wunderground v.1.13,2013-08-03 06:25:00,
2013-08-03 00:30:00,68.6,66.2,29.77,SE,140,0.0,14.0,92,0.00,,,0.00,Wunderground v.1.13,2013-08-03 06:30:00,
2013-08-03 00:35:00,68.6,66.2,29.78,ESE,117,0.0,14.0,92,0.00,,,0.00,Wunderground v.1.13,2013-08-03 06:35:00,
2013-08-03 00:39:00,68.8,66.4,29.78,East,89,0.0,14.0,92,0.00,,,0.00,Wunderground v.1.13,2013-08-03 06:39:00,
2013-08-03 00:45:00,68.8,66.4,29.78,SE,136,0.0,14.0,92,0.00,,,0.00,Wunderground v.1.13,2013-08-03 06:45:00,
2013-08-03 00:50:00,68.9,66.5,29.78,ESE,111,0.0,14.0,92,0.00,,,0.00,Wunderground v.1.13,2013-08-03 06:50:00,
2013-08-03 00:55:00,68.9,66.2,29.78,ESE,113,0.0,14.0,91,0.00,,,0.00,Wunderground v.1.13,2013-08-03 06:55:00,
2013-08-03 01:00:00,68.9,66.2,29.78,East,96,0.0,14.0,91,0.00,,,0.00,Wunderground v.1.13,2013-08-03 07:00:00,
2013-08-03 01:05:00,68.9,66.2,29.79,SE,136,0.0,14.0,91,0.00,,,0.00,Wunderground v.1.13,2013-08-03 07:05:00,
2013-08-03 01:10:00,69.1,66.4,29.79,SE,131,0.0,14.0,91,0.00,,,0.00,Wunderground v.1.13,2013-08-03 07:10:00,
2013-08-03 01:15:00,69.1,66.4,29.79,SE,142,0.0,14.0,91,0.00,,,0.00,Wunderground v.1.13,2013-08-03 07:15:00,
2013-08-03 01:20:00,69.3,66.6,29.80,SE,132,0.0,14.0,91,0.00,,,0.00,Wunderground v.1.13,2013-08-03 07:20:00,
2013-08-03 01:30:00,69.3,66.2,29.80,SE,131,0.0,14.0,90,0.00,,,0.00,Wunderground v.1.13,2013-08-03 07:30:00,
2013-08-03 01:35:00,69.3,66.2,29.79,SE,132,1.0,1.0,90,0.00,,,0.00,Wunderground v.1.13,2013-08-03 07:35:00,
2013-08-03 01:45:00,69.3,66.2,29.79,SE,144,1.0,14.0,90,0.00,,,0.00,Wunderground v.1.13,2013-08-03 07:45:00,
2013-08-03 01:50:00,69.3,66.2,29.79,SE,141,1.0,1.0,90,0.00,,,0.00,Wunderground v.1.13,2013-08-03 07:50:00,
2013-08-03 01:55:00,69.3,66.2,29.79,SE,142,0.0,14.0,90,0.00,,,0.00,Wunderground v.1.13,2013-08-03 07:55:00,
2013-08-03 02:00:00,69.3,66.2,29.79,SE,138,0.0,14.0,90,0.00,,,0.00,Wunderground v.1.13,2013-08-03 08:00:00,
2013-08-03 02:05:00,69.3,66.2,29.79,SE,144,0.0,14.0,90,0.00,,,0.00,Wunderground v.1.13,2013-08-03 08:05:00,
2013-08-03 02:10:00,69.3,66.2,29.79,SE,132,0.0,14.0,90,0.00,,,0.00,Wunderground v.1.13,2013-08-03 08:10:00,
2013-08-03 02:15:00,69.1,66.0,29.79,SE,138,0.0,14.0,90,0.00,,,0.00,Wunderground v.1.13,2013-08-03 08:15:00,
2013-08-03 02:20:00,69.1,66.0,29.77,ESE,116,0.0,14.0,90,0.00,,,0.00,Wunderground v.1.13,2013-08-03 08:20:00,
2013-08-03 02:25:00,69.1,66.0,29.77,SE,134,1.0,1.0,90,0.00,,,0.00,Wunderground v.1.13,2013-08-03 08:25:00,
2013-08-03 02:30:00,69.1,66.0,29.77,SE,142,1.0,1.0,90,0.00,,,0.00,Wunderground v.1.13,2013-08-03 08:30:00,
2013-08-03 02:35:00,69.1,66.0,29.78,SE,136,0.0,14.0,90,0.00,,,0.00,Wunderground v.1.13,2013-08-03 08:35:00,
2013-08-03 02:40:00,68.9,66.2,29.78,SE,135,0.0,14.0,91,0.00,,,0.00,Wunderground v.1.13,2013-08-03 08:40:00,
2013-08-03 02:45:00,68.9,66.2,29.78,SE,135,0.0,14.0,91,0.00,,,0.00,Wunderground v.1.13,2013-08-03 08:45:00,
2013-08-03 02:50:00,68.9,66.2,29.77,SE,136,0.0,14.0,91,0.00,,,0.00,Wunderground v.1.13,2013-08-03 08:50:00,
2013-08-03 02:55:00,68.9,66.2,29.77,SE,130,1.0,1.0,91,0.00,,,0.00,Wunderground v.1.13,2013-08-03 08:55:00,
2013-08-03 03:00:00,68.9,66.2,29.77,SE,138,0.0,14.0,91,0.00,,,0.00,Wunderground v.1.13,2013-08-03 09:00:00,
2013-08-03 03:05:00,68.9,66.2,29.77,SE,135,0.0,14.0,91,0.00,,,0.00,Wunderground v.1.13,2013-08-03 09:05:00,
2013-08-03 03:10:00,68.9,66.2,29.77,SSE,148,0.0,14.0,91,0.00,,,0.00,Wunderground v.1.13,2013-08-03 09:10:00,
2013-08-03 03:20:00,68.8,66.1,29.77,SE,146,0.0,14.0,91,0.00,,,0.00,Wunderground v.1.13,2013-08-03 09:20:00,
2013-08-03 03:24:00,68.8,66.1,29.77,SE,146,0.0,14.0,91,0.00,,,0.00,Wunderground v.1.13,2013-08-03 09:24:00,
2013-08-03 03:30:00,68.6,65.9,29.77,SE,127,0.0,14.0,91,0.00,,,0.00,Wunderground v.1.13,2013-08-03 09:30:00,
2013-08-03 03:35:00,68.6,65.9,29.76,SE,132,0.0,14.0,91,0.00,,,0.00,Wunderground v.1.13,2013-08-03 09:35:00,
2013-08-03 03:40:00,68.6,66.2,29.76,ESE,102,0.0,14.0,92,0.00,,,0.00,Wunderground v.1.13,2013-08-03 09:40:00,
2013-08-03 03:45:00,68.4,66.0,29.76,SE,136,0.0,14.0,92,0.00,,,0.00,Wunderground v.1.13,2013-08-03 09:45:00,
2013-08-03 03:50:00,68.3,65.9,29.75,SE,126,0.0,14.0,92,0.00,,,0.00,Wunderground v.1.13,2013-08-03 09:50:00,
2013-08-03 03:55:00,68.3,65.9,29.75,SE,138,0.0,14.0,92,0.00,,,0.00,Wunderground v.1.13,2013-08-03 09:55:00,
2013-08-03 04:00:00,68.1,65.7,29.75,ESE,121,0.0,14.0,92,0.00,,,0.00,Wunderground v.1.13,2013-08-03 10:00:00,
2013-08-03 04:05:00,67.9,65.5,29.75,ESE,119,0.0,14.0,92,0.00,,,0.00,Wunderground v.1.13,2013-08-03 10:05:00,
2013-08-03 04:10:00,67.8,65.4,29.75,SE,138,0.0,14.0,92,0.00,,,0.00,Wunderground v.1.13,2013-08-03 10:10:00,
2013-08-03 04:15:00,67.8,65.4,29.75,ESE,114,1.0,1.0,92,0.00,,,0.00,Wunderground v.1.13,2013-08-03 10:15:00,
2013-08-03 04:19:00,67.6,65.2,29.76,ESE,106,0.0,14.0,92,0.00,,,0.00,Wunderground v.1.13,2013-08-03 10:19:00,
2013-08-03 04:25:00,67.6,65.5,29.76,SE,138,0.0,14.0,93,0.00,,,0.00,Wunderground v.1.13,2013-08-03 10:25:00,
2013-08-03 04:30:00,67.6,65.5,29.76,SE,132,0.0,14.0,93,0.00,,,0.00,Wunderground v.1.13,2013-08-03 10:30:00,
2013-08-03 04:35:00,67.6,65.5,29.76,ESE,110,0.0,14.0,93,0.00,,,0.00,Wunderground v.1.13,2013-08-03 10:35:00,
2013-08-03 04:40:00,67.4,65.3,29.76,East,93,0.0,14.0,93,0.00,,,0.00,Wunderground v.1.13,2013-08-03 10:40:00,
2013-08-03 04:45:00,67.4,65.3,29.76,East,101,0.0,14.0,93,0.00,,,0.00,Wunderground v.1.13,2013-08-03 10:45:00,
2013-08-03 04:55:00,67.4,65.3,29.76,East,96,0.0,14.0,93,0.00,,,0.00,Wunderground v.1.13,2013-08-03 10:55:00,
2013-08-03 05:00:00,67.6,65.5,29.76,SE,135,0.0,14.0,93,0.00,,,0.00,Wunderground v.1.13,2013-08-03 11:00:00,
2013-08-03 05:10:00,67.4,65.3,29.76,South,171,0.0,14.0,93,0.00,,,0.00,Wunderground v.1.13,2013-08-03 11:10:00,
2013-08-03 05:14:00,67.4,65.3,29.76,East,91,0.0,14.0,93,0.00,,,0.00,Wunderground v.1.13,2013-08-03 11:14:00,
2013-08-03 05:20:00,67.4,65.3,29.77,SSE,151,0.0,14.0,93,0.00,,,0.00,Wunderground v.1.13,2013-08-03 11:20:00,
2013-08-03 05:30:00,67.4,65.0,29.77,SSE,148,2.0,14.0,92,0.00,,,0.00,Wunderground v.1.13,2013-08-03 11:30:00,
2013-08-03 05:35:00,67.6,65.2,29.77,SSE,150,2.0,2.0,92,0.00,,,0.00,Wunderground v.1.13,2013-08-03 11:35:00,
2013-08-03 05:40:00,67.6,64.9,29.77,SE,142,1.0,1.0,91,0.00,,,0.00,Wunderground v.1.13,2013-08-03 11:40:00,
2013-08-03 05:50:00,67.6,64.6,29.78,SE,132,1.0,1.0,90,0.00,,,0.00,Wunderground v.1.13,2013-08-03 11:50:00,
2013-08-03 06:00:00,67.8,64.8,29.78,ESE,116,1.0,1.0,90,0.00,,,0.00,Wunderground v.1.13,2013-08-03 12:00:00,
2013-08-03 06:10:00,67.8,64.8,29.78,ESE,117,1.0,14.0,90,0.00,,,0.00,Wunderground v.1.13,2013-08-03 12:10:00,
2013-08-03 06:15:00,67.8,64.8,29.78,SE,142,1.0,1.0,90,0.00,,,0.00,Wunderground v.1.13,2013-08-03 12:15:00,
2013-08-03 06:20:00,67.8,64.8,29.79,SE,128,1.0,1.0,90,0.00,,,0.00,Wunderground v.1.13,2013-08-03 12:20:00,
2013-08-03 06:25:00,67.8,64.8,29.79,SSE,164,0.0,14.0,90,0.00,,,0.00,Wunderground v.1.13,2013-08-03 12:25:00,
2013-08-03 06:30:00,67.8,64.8,29.79,SSE,148,0.0,14.0,90,0.00,,,0.00,Wunderground v.1.13,2013-08-03 12:30:00,
2013-08-03 06:40:00,67.8,64.8,29.80,SE,141,1.0,1.0,90,0.00,,,0.00,Wunderground v.1.13,2013-08-03 12:40:00,
2013-08-03 06:45:00,67.8,64.8,29.80,SE,142,0.0,14.0,90,0.00,,,0.00,Wunderground v.1.13,2013-08-03 12:45:00,
2013-08-03 06:55:00,67.8,64.4,29.80,SSE,151,1.0,1.0,89,0.00,,,0.00,Wunderground v.1.13,2013-08-03 12:55:00,
2013-08-03 07:00:00,67.9,64.5,29.80,SE,125,1.0,1.0,89,0.00,,,0.00,Wunderground v.1.13,2013-08-03 13:00:00,
2013-08-03 07:05:00,67.9,64.5,29.80,SE,139,0.0,14.0,89,0.00,,,0.00,Wunderground v.1.13,2013-08-03 13:05:00,
2013-08-03 07:10:00,67.9,64.5,29.80,SE,125,0.0,14.0,89,0.00,,,0.00,Wunderground v.1.13,2013-08-03 13:10:00,
2013-08-03 07:15:00,67.9,64.5,29.80,ESE,118,0.0,14.0,89,0.00,,,0.00,Wunderground v.1.13,2013-08-03 13:15:00,
2013-08-03 07:20:00,67.9,64.5,29.80,SSE,153,0.0,14.0,89,0.00,,,0.00,Wunderground v.1.13,2013-08-03 13:20:00,
2013-08-03 07:30:00,67.9,64.5,29.80,SSE,151,1.0,1.0,89,0.00,,,0.00,Wunderground v.1.13,2013-08-03 13:30:00,
2013-08-03 07:35:00,68.1,64.7,29.80,ENE,67,1.0,1.0,89,0.00,,,0.00,Wunderground v.1.13,2013-08-03 13:35:00,
2013-08-03 07:40:00,67.9,64.5,29.80,SSE,153,1.0,1.0,89,0.00,,,0.00,Wunderground v.1.13,2013-08-03 13:40:00,
2013-08-03 07:50:00,67.9,64.5,29.81,SE,142,1.0,1.0,89,0.00,,,0.00,Wunderground v.1.13,2013-08-03 13:50:00,
2013-08-03 07:55:00,67.8,64.1,29.81,East,89,1.0,1.0,88,0.00,,,0.00,Wunderground v.1.13,2013-08-03 13:55:00,
2013-08-03 08:05:00,67.9,64.2,29.81,SE,142,0.0,14.0,88,0.00,,,0.00,Wunderground v.1.13,2013-08-03 14:05:00,
2013-08-03 08:10:00,67.8,64.4,29.81,SSE,148,1.0,14.0,89,0.00,,,0.00,Wunderground v.1.13,2013-08-03 14:10:00,
2013-08-03 08:15:00,67.8,64.4,29.81,SE,137,1.0,1.0,89,0.00,,,0.00,Wunderground v.1.13,2013-08-03 14:15:00,
2013-08-03 08:25:00,67.8,64.4,29.81,SSE,157,1.0,14.0,89,0.00,,,0.00,Wunderground v.1.13,2013-08-03 14:25:00,
2013-08-03 08:35:00,67.8,64.4,29.81,SE,140,1.0,1.0,89,0.00,,,0.00,Wunderground v.1.13,2013-08-03 14:35:00,
2013-08-03 08:40:00,67.9,64.5,29.81,SE,141,1.0,14.0,89,0.00,,,0.00,Wunderground v.1.13,2013-08-03 14:40:00,
2013-08-03 08:45:00,67.9,64.5,29.81,SSE,153,1.0,1.0,89,0.00,,,0.00,Wunderground v.1.13,2013-08-03 14:45:00,
2013-08-03 08:50:00,67.8,64.4,29.82,SSE,160,1.0,14.0,89,0.00,,,0.00,Wunderground v.1.13,2013-08-03 14:50:00,
2013-08-03 08:55:00,67.9,64.5,29.82,ESE,119,1.0,14.0,89,0.00,,,0.00,Wunderground v.1.13,2013-08-03 14:55:00,
2013-08-03 09:00:00,67.8,64.4,29.82,SE,145,1.0,14.0,89,0.00,,,0.00,Wunderground v.1.13,2013-08-03 15:00:00,
2013-08-03 09:09:00,67.8,64.4,29.83,ESE,120,1.0,1.0,89,0.00,,,0.00,Wunderground v.1.13,2013-08-03 15:09:00,
2013-08-03 09:15:00,67.8,64.4,29.83,SSE,162,1.0,1.0,89,0.00,,,0.00,Wunderground v.1.13,2013-08-03 15:15:00,
2013-08-03 09:20:00,67.8,64.4,29.83,SSE,153,1.0,14.0,89,0.00,,,0.00,Wunderground v.1.13,2013-08-03 15:20:00,
2013-08-03 09:25:00,67.8,64.4,29.83,SSE,153,2.0,2.0,89,0.00,,,0.00,Wunderground v.1.13,2013-08-03 15:25:00,
2013-08-03 09:30:00,67.9,64.5,29.83,SE,140,1.0,1.0,89,0.00,,,0.00,Wunderground v.1.13,2013-08-03 15:30:00,
2013-08-03 09:35:00,67.9,64.5,29.84,SSE,147,1.0,1.0,89,0.00,,,0.00,Wunderground v.1.13,2013-08-03 15:35:00,
2013-08-03 09:40:00,67.9,64.5,29.84,ESE,122,0.0,14.0,89,0.00,,,0.00,Wunderground v.1.13,2013-08-03 15:40:00,
2013-08-03 09:45:00,67.9,64.2,29.84,East,100,0.0,14.0,88,0.00,,,0.00,Wunderground v.1.13,2013-08-03 15:45:00,
2013-08-03 09:50:00,67.9,64.2,29.85,ENE,77,0.0,14.0,88,0.00,,,0.00,Wunderground v.1.13,2013-08-03 15:50:00,
2013-08-03 09:55:00,68.1,64.4,29.85,ESE,103,0.0,14.0,88,0.00,,,0.00,Wunderground v.1.13,2013-08-03 15:55:00,
2013-08-03 10:05:00,68.3,64.6,29.86,East,92,0.0,14.0,88,0.00,,,0.00,Wunderground v.1.13,2013-08-03 16:05:00,
2013-08-03 10:10:00,68.4,64.7,29.86,NE,46,0.0,14.0,88,0.00,,,0.00,Wunderground v.1.13,2013-08-03 16:10:00,
2013-08-03 10:15:00,68.4,64.4,29.86,ENE,59,0.0,14.0,87,0.00,,,0.00,Wunderground v.1.13,2013-08-03 16:15:00,
2013-08-03 10:20:00,68.4,64.4,29.87,ENE,69,0.0,14.0,87,0.00,,,0.00,Wunderground v.1.13,2013-08-03 16:20:00,
2013-08-03 10:30:00,68.4,64.4,29.87,East,99,1.0,1.0,87,0.00,,,0.00,Wunderground v.1.13,2013-08-03 16:30:00,
2013-08-03 10:40:00,68.8,64.4,29.88,SE,126,1.0,1.0,86,0.00,,,0.00,Wunderground v.1.13,2013-08-03 16:40:00,
2013-08-03 10:44:00,68.8,64.1,29.88,ESE,110,1.0,1.0,85,0.00,,,0.00,Wunderground v.1.13,2013-08-03 16:44:00,
2013-08-03 10:50:00,68.6,64.2,29.89,East,101,1.0,1.0,86,0.00,,,0.00,Wunderground v.1.13,2013-08-03 16:50:00,
2013-08-03 10:55:00,68.3,64.3,29.89,ENE,59,1.0,1.0,87,0.00,,,0.00,Wunderground v.1.13,2013-08-03 16:55:00,
2013-08-03 11:00:00,68.1,64.7,29.89,ENE,74,1.0,1.0,89,0.00,,,0.00,Wunderground v.1.13,2013-08-03 17:00:00,
2013-08-03 11:04:00,67.6,64.2,29.90,ENE,64,1.0,14.0,89,0.00,,,0.00,Wunderground v.1.13,2013-08-03 17:04:00,
2013-08-03 11:15:00,66.4,63.7,29.90,ENE,74,3.0,14.0,91,0.00,,,0.00,Wunderground v.1.13,2013-08-03 17:15:00,
2013-08-03 11:20:00,66.4,64.0,29.90,ENE,57,2.0,2.0,92,0.00,,,0.00,Wunderground v.1.13,2013-08-03 17:20:00,
2013-08-03 11:25:00,66.6,64.2,29.90,ENE,76,1.0,1.0,92,0.00,,,0.00,Wunderground v.1.13,2013-08-03 17:25:00,
2013-08-03 11:35:00,66.3,63.6,29.90,East,91,1.0,14.0,91,0.00,,,0.00,Wunderground v.1.13,2013-08-03 17:35:00,
2013-08-03 11:40:00,66.3,63.6,29.90,NE,46,2.0,14.0,91,0.00,,,0.00,Wunderground v.1.13,2013-08-03 17:40:00,
2013-08-03 11:50:00,66.9,63.9,29.90,ESE,109,1.0,14.0,90,0.00,,,0.00,Wunderground v.1.13,2013-08-03 17:50:00,
2013-08-03 11:55:00,66.9,63.9,29.90,ENE,76,1.0,1.0,90,0.00,,,0.00,Wunderground v.1.13,2013-08-03 17:55:00,
2013-08-03 12:00:00,66.6,63.3,29.90,ENE,66,1.0,14.0,89,0.00,,,0.00,Wunderground v.1.13,2013-08-03 18:00:00,
2013-08-03 12:05:00,66.3,63.3,29.91,ESE,105,2.0,14.0,90,0.00,,,0.00,Wunderground v.1.13,2013-08-03 18:05:00,
2013-08-03 12:10:00,65.8,62.8,29.91,ENE,59,4.0,14.0,90,0.00,,,0.00,Wunderground v.1.13,2013-08-03 18:10:00,
2013-08-03 12:20:00,65.5,63.1,29.91,East,86,4.0,14.0,92,0.00,,,0.00,Wunderground v.1.13,2013-08-03 18:20:00,
2013-08-03 12:25:00,65.3,62.9,29.91,SSE,147,2.0,2.0,92,0.00,,,0.00,Wunderground v.1.13,2013-08-03 18:25:00,
2013-08-03 12:30:00,65.2,62.5,29.91,East,81,3.0,3.0,91,0.00,,,0.00,Wunderground v.1.13,2013-08-03 18:30:00,
2013-08-03 12:35:00,65.2,62.5,29.91,East,88,2.0,2.0,91,0.00,,,0.00,Wunderground v.1.13,2013-08-03 18:35:00,
2013-08-03 12:40:00,65.0,62.0,29.91,ENE,71,2.0,2.0,90,0.00,,,0.00,Wunderground v.1.13,2013-08-03 18:40:00,
2013-08-03 12:45:00,65.2,62.2,29.91,East,90,1.0,14.0,90,0.00,,,0.00,Wunderground v.1.13,2013-08-03 18:45:00,
2013-08-03 12:55:00,65.5,62.2,29.91,ENE,65,3.0,14.0,89,0.00,,,0.00,Wunderground v.1.13,2013-08-03 18:55:00,
2013-08-03 13:00:00,66.0,62.3,29.91,South,172,2.0,2.0,88,0.00,,,0.00,Wunderground v.1.13,2013-08-03 19:00:00,
2013-08-03 13:05:00,66.1,62.1,29.90,ESE,123,1.0,1.0,87,0.00,,,0.00,Wunderground v.1.13,2013-08-03 19:05:00,
2013-08-03 13:10:00,66.4,62.4,29.90,East,93,2.0,2.0,87,0.00,,,0.00,Wunderground v.1.13,2013-08-03 19:10:00,
2013-08-03 13:15:00,66.8,62.5,29.90,SSE,151,2.0,14.0,86,0.00,,,0.00,Wunderground v.1.13,2013-08-03 19:15:00,
2013-08-03 13:20:00,66.9,62.2,29.90,SE,137,2.0,2.0,85,0.00,,,0.00,Wunderground v.1.13,2013-08-03 19:20:00,
2013-08-03 13:25:00,67.3,62.3,29.90,East,99,3.0,3.0,84,0.00,,,0.00,Wunderground v.1.13,2013-08-03 19:25:00,
2013-08-03 13:30:00,67.8,62.4,29.90,SE,142,3.0,3.0,83,0.00,,,0.00,Wunderground v.1.13,2013-08-03 19:30:00,
2013-08-03 13:40:00,68.1,62.4,29.89,SE,144,3.0,3.0,82,0.00,,,0.00,Wunderground v.1.13,2013-08-03 19:40:00,
2013-08-03 13:45:00,69.1,63.0,29.89,ENE,69,3.0,3.0,81,0.00,,,0.00,Wunderground v.1.13,2013-08-03 19:45:00,
2013-08-03 13:49:00,69.8,63.0,29.89,ENE,78,2.0,2.0,79,0.00,,,0.00,Wunderground v.1.13,2013-08-03 19:49:00,
2013-08-03 13:55:00,70.6,63.0,29.89,SE,138,3.0,3.0,77,0.00,,,0.00,Wunderground v.1.13,2013-08-03 19:55:00,
2013-08-03 14:00:00,70.9,63.0,29.89,NE,43,2.0,2.0,76,0.00,,,0.00,Wunderground v.1.13,2013-08-03 20:00:00,
2013-08-03 14:10:00,72.0,63.3,29.89,SSE,154,2.0,14.0,74,0.00,,,0.00,Wunderground v.1.13,2013-08-03 20:10:00,
2013-08-03 14:14:00,72.7,63.5,29.89,East,95,2.0,2.0,73,0.00,,,0.00,Wunderground v.1.13,2013-08-03 20:14:00,
2013-08-03 14:20:00,72.7,62.8,29.88,SSE,163,2.0,15.0,71,0.00,,,0.00,Wunderground v.1.13,2013-08-03 20:20:00,
2013-08-03 14:30:00,73.9,63.1,29.88,SSE,147,6.0,14.0,69,0.00,,,0.00,Wunderground v.1.13,2013-08-03 20:30:00,
2013-08-03 14:35:00,74.0,62.3,29.86,SSE,151,7.0,7.0,67,0.00,,,0.00,Wunderground v.1.13,2013-08-03 20:35:00,
2013-08-03 14:40:00,74.7,63.0,29.86,SSE,150,6.0,6.0,67,0.00,,,0.00,Wunderground v.1.13,2013-08-03 20:40:00,
2013-08-03 14:44:00,74.9,63.2,29.86,SE,138,5.0,5.0,67,0.00,,,0.00,Wunderground v.1.13,2013-08-03 20:44:00,
2013-08-03 14:50:00,75.1,62.5,29.86,SSE,165,6.0,14.0,65,0.00,,,0.00,Wunderground v.1.13,2013-08-03 20:50:00,
2013-08-03 14:55:00,75.1,63.0,29.86,SSE,157,5.0,14.0,66,0.00,,,0.00,Wunderground v.1.13,2013-08-03 20:55:00,
2013-08-03 15:05:00,75.3,62.3,29.85,ENE,78,6.0,6.0,64,0.00,,,0.00,Wunderground v.1.13,2013-08-03 21:05:00,
2013-08-03 15:10:00,74.9,62.3,29.85,SE,134,4.0,14.0,65,0.00,,,0.00,Wunderground v.1.13,2013-08-03 21:10:00,
2013-08-03 15:15:00,74.9,62.3,29.85,SSE,162,4.0,14.0,65,0.00,,,0.00,Wunderground v.1.13,2013-08-03 21:15:00,
2013-08-03 15:20:00,75.8,62.3,29.85,South,181,4.0,14.0,63,0.00,,,0.00,Wunderground v.1.13,2013-08-03 21:20:00,
2013-08-03 15:25:00,76.3,62.8,29.85,SE,146,4.0,14.0,63,0.00,,,0.00,Wunderground v.1.13,2013-08-03 21:25:00,
2013-08-03 15:30:00,76.5,62.5,29.85,SE,146,4.0,4.0,62,0.00,,,0.00,Wunderground v.1.13,2013-08-03 21:30:00,
2013-08-03 15:35:00,76.5,62.5,29.85,SE,141,3.0,3.0,62,0.00,,,0.00,Wunderground v.1.13,2013-08-03 21:35:00,
2013-08-03 15:40:00,76.1,62.6,29.85,ENE,67,2.0,2.0,63,0.00,,,0.00,Wunderground v.1.13,2013-08-03 21:40:00,
2013-08-03 15:45:00,76.0,62.5,29.85,SSE,154,2.0,2.0,63,0.00,,,0.00,Wunderground v.1.13,2013-08-03 21:45:00,
2013-08-03 15:50:00,76.0,62.5,29.86,SE,130,2.0,14.0,63,0.00,,,0.00,Wunderground v.1.13,2013-08-03 21:50:00,
2013-08-03 15:59:00,76.0,62.5,29.86,East,86,3.0,3.0,63,0.00,,,0.00,Wunderground v.1.13,2013-08-03 21:59:00,
2013-08-03 16:05:00,75.8,61.8,29.86,ESE,121,3.0,14.0,62,0.00,,,0.00,Wunderground v.1.13,2013-08-03 22:05:00,
2013-08-03 16:10:00,75.6,62.1,29.86,SSE,147,2.0,2.0,63,0.00,,,0.00,Wunderground v.1.13,2013-08-03 22:10:00,
2013-08-03 16:15:00,75.3,61.8,29.86,SE,139,2.0,2.0,63,0.00,,,0.00,Wunderground v.1.13,2013-08-03 22:15:00,
2013-08-03 16:25:00,75.4,61.5,29.86,South,172,2.0,2.0,62,0.00,,,0.00,Wunderground v.1.13,2013-08-03 22:25:00,
2013-08-03 16:30:00,75.3,61.8,29.86,SSE,165,3.0,14.0,63,0.00,,,0.00,Wunderground v.1.13,2013-08-03 22:30:00,
2013-08-03 16:35:00,74.9,61.5,29.87,SSW,207,3.0,14.0,63,0.00,,,0.00,Wunderground v.1.13,2013-08-03 22:35:00,
2013-08-03 16:40:00,74.6,61.6,29.87,South,180,3.0,14.0,64,0.00,,,0.00,Wunderground v.1.13,2013-08-03 22:40:00,
2013-08-03 16:50:00,74.4,61.9,29.88,SSE,153,3.0,3.0,65,0.00,,,0.00,Wunderground v.1.13,2013-08-03 22:50:00,
2013-08-03 16:55:00,74.2,61.2,29.88,SSE,154,2.0,14.0,64,0.00,,,0.00,Wunderground v.1.13,2013-08-03 22:55:00,
2013-08-03 17:00:00,73.9,61.4,29.88,SE,131,2.0,14.0,65,0.00,,,0.00,Wunderground v.1.13,2013-08-03 23:00:00,
2013-08-03 17:05:00,73.7,61.6,29.88,SSE,151,3.0,3.0,66,0.00,,,0.00,Wunderground v.1.13,2013-08-03 23:05:00,
2013-08-03 17:10:00,73.3,61.7,29.88,SSE,155,3.0,3.0,67,0.00,,,0.00,Wunderground v.1.13,2013-08-03 23:10:00,
2013-08-03 17:15:00,73.2,61.6,29.88,SE,144,2.0,2.0,67,0.00,,,0.00,Wunderground v.1.13,2013-08-03 23:15:00,
2013-08-03 17:20:00,73.2,61.6,29.87,SSE,157,0.0,14.0,67,0.00,,,0.00,Wunderground v.1.13,2013-08-03 23:20:00,
2013-08-03 17:30:00,73.0,61.8,29.87,SSE,156,0.0,14.0,68,0.00,,,0.00,Wunderground v.1.13,2013-08-03 23:30:00,
2013-08-03 17:35:00,72.8,62.0,29.87,SE,143,0.0,14.0,69,0.00,,,0.00,Wunderground v.1.13,2013-08-03 23:35:00,
2013-08-03 17:40:00,72.5,61.7,29.87,SSE,150,1.0,1.0,69,0.00,,,0.00,Wunderground v.1.13,2013-08-03 23:40:00,
2013-08-03 17:45:00,72.3,61.6,29.87,SE,145,2.0,14.0,69,0.00,,,0.00,Wunderground v.1.13,2013-08-03 23:45:00,
2013-08-03 17:50:00,72.3,62.0,29.87,SSE,161,2.0,2.0,70,0.00,,,0.00,Wunderground v.1.13,2013-08-03 23:50:00,
2013-08-03 17:55:00,72.3,62.0,29.87,SE,146,1.0,1.0,70,0.00,,,0.00,Wunderground v.1.13,2013-08-03 23:55:00,
2013-08-03 18:05:00,72.3,62.0,29.87,SSE,153,0.0,14.0,70,0.00,,,0.00,Wunderground v.1.13,2013-08-04 00:05:00,
2013-08-03 18:10:00,72.3,62.4,29.87,SSE,153,0.0,14.0,71,0.00,,,0.00,Wunderground v.1.13,2013-08-04 00:10:00,
2013-08-03 18:14:00,72.1,62.6,29.87,South,172,0.0,14.0,72,0.00,,,0.00,Wunderground v.1.13,2013-08-04 00:14:00,
2013-08-03 18:20:00,72.0,62.5,29.87,South,173,0.0,14.0,72,0.00,,,0.00,Wunderground v.1.13,2013-08-04 00:20:00,
2013-08-03 18:25:00,71.8,61.9,29.87,SSE,168,0.0,14.0,71,0.00,,,0.00,Wunderground v.1.13,2013-08-04 00:25:00,
2013-08-03 18:30:00,71.6,62.1,29.87,SSE,163,0.0,14.0,72,0.00,,,0.00,Wunderground v.1.13,2013-08-04 00:30:00,
2013-08-03 18:35:00,71.5,62.4,29.87,SSW,196,0.0,14.0,73,0.00,,,0.00,Wunderground v.1.13,2013-08-04 00:35:00,
2013-08-03 18:45:00,70.8,62.5,29.87,SSE,152,2.0,2.0,75,0.00,,,0.01,Wunderground v.1.13,2013-08-04 00:45:00,
2013-08-03 18:55:00,69.4,63.0,29.89,SSW,196,0.0,14.0,80,0.49,,,0.06,Wunderground v.1.13,2013-08-04 00:55:00,
2013-08-03 19:00:00,68.8,62.7,29.89,SSE,147,1.0,1.0,81,0.20,,,0.07,Wunderground v.1.13,2013-08-04 01:00:00,
2013-08-03 19:05:00,68.3,62.9,29.90,SSE,151,1.0,14.0,83,0.15,,,0.08,Wunderground v.1.13,2013-08-04 01:05:00,
2013-08-03 19:15:00,67.8,63.1,29.90,SW,216,1.0,15.0,85,0.04,,,0.08,Wunderground v.1.13,2013-08-04 01:15:00,
2013-08-03 19:20:00,68.3,62.9,29.89,South,178,4.0,4.0,83,0.00,,,0.08,Wunderground v.1.13,2013-08-04 01:20:00,
2013-08-03 19:25:00,68.3,62.9,29.89,South,178,4.0,14.0,83,0.00,,,0.08,Wunderground v.1.13,2013-08-04 01:25:00,
2013-08-03 19:35:00,68.6,62.9,29.89,SSE,157,1.0,1.0,82,0.00,,,0.08,Wunderground v.1.13,2013-08-04 01:35:00,
2013-08-03 19:40:00,68.3,62.9,29.89,ENE,78,1.0,1.0,83,0.00,,,0.08,Wunderground v.1.13,2013-08-04 01:40:00,
2013-08-03 19:45:00,68.1,63.1,29.89,ENE,78,0.0,14.0,84,0.00,,,0.08,Wunderground v.1.13,2013-08-04 01:45:00,
2013-08-03 19:55:00,68.1,63.4,29.89,ENE,67,0.0,14.0,85,0.00,,,0.08,Wunderground v.1.13,2013-08-04 01:55:00,
2013-08-03 20:00:00,68.3,63.6,29.89,ENE,67,0.0,14.0,85,0.00,,,0.08,Wunderground v.1.13,2013-08-04 02:00:00,
2013-08-03 20:05:00,68.3,63.6,29.89,ENE,69,0.0,14.0,85,0.00,,,0.08,Wunderground v.1.13,2013-08-04 02:05:00,
2013-08-03 20:10:00,68.1,63.4,29.89,ENE,69,0.0,14.0,85,0.00,,,0.08,Wunderground v.1.13,2013-08-04 02:10:00,
2013-08-03 20:15:00,67.9,63.6,29.89,East,88,0.0,14.0,86,0.00,,,0.08,Wunderground v.1.13,2013-08-04 02:15:00,
2013-08-03 20:20:00,67.8,63.5,29.89,East,88,0.0,14.0,86,0.00,,,0.08,Wunderground v.1.13,2013-08-04 02:20:00,
2013-08-03 20:25:00,67.6,63.6,29.89,East,92,0.0,14.0,87,0.00,,,0.08,Wunderground v.1.13,2013-08-04 02:25:00,
2013-08-03 20:30:00,67.6,63.6,29.89,SE,131,0.0,14.0,87,0.00,,,0.08,Wunderground v.1.13,2013-08-04 02:30:00,
2013-08-03 20:35:00,67.4,63.7,29.89,ESE,123,0.0,14.0,88,0.00,,,0.08,Wunderground v.1.13,2013-08-04 02:35:00,
2013-08-03 20:40:00,67.3,63.9,29.89,ESE,118,0.0,14.0,89,0.00,,,0.08,Wunderground v.1.13,2013-08-04 02:40:00,
2013-08-03 20:45:00,67.3,63.9,29.89,ESE,119,0.0,14.0,89,0.00,,,0.08,Wunderground v.1.13,2013-08-04 02:45:00,
2013-08-03 20:50:00,67.3,63.9,29.89,ESE,119,0.0,14.0,89,0.00,,,0.08,Wunderground v.1.13,2013-08-04 02:50:00,
2013-08-03 21:00:00,67.3,64.3,29.89,ESE,118,0.0,14.0,90,0.00,,,0.08,Wunderground v.1.13,2013-08-04 03:00:00,
2013-08-03 21:10:00,67.3,64.3,29.92,ESE,118,0.0,14.0,90,0.00,,,0.08,Wunderground v.1.13,2013-08-04 03:10:00,
2013-08-03 21:20:00,67.1,64.4,29.93,ESE,115,0.0,14.0,91,0.00,,,0.08,Wunderground v.1.13,2013-08-04 03:20:00,
2013-08-03 21:30:00,67.1,64.4,29.93,ESE,114,0.0,14.0,91,0.00,,,0.08,Wunderground v.1.13,2013-08-04 03:30:00,
2013-08-03 21:35:00,67.1,64.7,29.92,ESE,114,0.0,14.0,92,0.00,,,0.08,Wunderground v.1.13,2013-08-04 03:35:00,
2013-08-03 21:40:00,67.1,64.7,29.92,ESE,114,0.0,14.0,92,0.00,,,0.08,Wunderground v.1.13,2013-08-04 03:40:00,
2013-08-03 21:45:00,67.1,64.7,29.92,ESE,114,0.0,14.0,92,0.00,,,0.08,Wunderground v.1.13,2013-08-04 03:45:00,
2013-08-03 21:50:00,67.1,64.7,29.93,ESE,113,0.0,14.0,92,0.00,,,0.08,Wunderground v.1.13,2013-08-04 03:50:00,
2013-08-03 21:55:00,67.1,64.7,29.93,ESE,113,0.0,14.0,92,0.00,,,0.08,Wunderground v.1.13,2013-08-04 03:55:00,
2013-08-03 22:05:00,67.3,64.6,29.93,ESE,113,0.0,14.0,91,0.00,,,0.08,Wunderground v.1.13,2013-08-04 04:05:00,
2013-08-03 22:10:00,67.1,64.4,29.93,ESE,113,0.0,14.0,91,0.00,,,0.08,Wunderground v.1.13,2013-08-04 04:10:00,
2013-08-03 22:15:00,67.1,64.7,29.93,ESE,113,0.0,14.0,92,0.00,,,0.08,Wunderground v.1.13,2013-08-04 04:15:00,
2013-08-03 22:20:00,67.1,64.4,29.93,ESE,113,0.0,14.0,91,0.00,,,0.08,Wunderground v.1.13,2013-08-04 04:20:00,
2013-08-03 22:25:00,67.1,64.7,29.93,ESE,113,0.0,14.0,92,0.00,,,0.08,Wunderground v.1.13,2013-08-04 04:25:00,
2013-08-03 22:30:00,66.9,64.5,29.93,ESE,113,0.0,14.0,92,0.00,,,0.08,Wunderground v.1.13,2013-08-04 04:30:00,
2013-08-03 22:40:00,66.9,64.5,29.93,ESE,113,0.0,14.0,92,0.00,,,0.08,Wunderground v.1.13,2013-08-04 04:40:00,
2013-08-03 22:45:00,67.1,64.7,29.93,ESE,113,0.0,14.0,92,0.00,,,0.08,Wunderground v.1.13,2013-08-04 04:45:00,
2013-08-03 22:50:00,67.1,64.7,29.91,ESE,113,0.0,14.0,92,0.00,,,0.08,Wunderground v.1.13,2013-08-04 04:50:00,
2013-08-03 22:55:00,67.1,64.4,29.91,ESE,113,0.0,14.0,91,0.00,,,0.08,Wunderground v.1.13,2013-08-04 04:55:00,
2013-08-03 23:05:00,67.3,64.6,29.91,ESE,122,0.0,14.0,91,0.00,,,0.08,Wunderground v.1.13,2013-08-04 05:05:00,
2013-08-03 23:10:00,67.3,64.9,29.91,ESE,122,0.0,14.0,92,0.00,,,0.08,Wunderground v.1.13,2013-08-04 05:10:00,
2013-08-03 23:15:00,67.1,64.7,29.91,ESE,122,0.0,14.0,92,0.00,,,0.08,Wunderground v.1.13,2013-08-04 05:15:00,
2013-08-03 23:20:00,67.1,64.7,29.91,ESE,122,0.0,14.0,92,0.00,,,0.08,Wunderground v.1.13,2013-08-04 05:20:00,
2013-08-03 23:25:00,66.9,64.5,29.91,ESE,122,0.0,14.0,92,0.00,,,0.08,Wunderground v.1.13,2013-08-04 05:25:00,
2013-08-03 23:30:00,66.9,64.5,29.91,ESE,122,0.0,14.0,92,0.00,,,0.08,Wunderground v.1.13,2013-08-04 05:30:00,
2013-08-03 23:40:00,66.9,64.8,29.91,ESE,122,0.0,14.0,93,0.00,,,0.08,Wunderground v.1.13,2013-08-04 05:40:00,
2013-08-03 23:45:00,66.9,64.8,29.91,ESE,122,0.0,14.0,93,0.00,,,0.08,Wunderground v.1.13,2013-08-04 05:45:00,
2013-08-03 23:50:00,66.9,64.8,29.90,ESE,122,0.0,14.0,93,0.00,,,0.08,Wunderground v.1.13,2013-08-04 05:50:00,
2013-08-03 23:55:00,66.9,64.8,29.90,ESE,122,0.0,14.0,93,0.00,,,0.08,Wunderground v.1.13,2013-08-04 05:55:00,